McGrew, Nebraska
Current Conditions -  °F | °C
As of 1:53 AM on Sunday 23 Nov 2014 (Local Time) from KBFF Reporting Station
Overcast Overcast  
Wind Chill: -2°   Ceiling: 9000
Heat Index:   Visibility: 10mi
Dew Point: -3°   Wind: 14mph
Humidity: 67%   Direction: 320°NW
Pressure: 29.65"   Gusts: NA
Location:  41.75°N, 103.42°W
Report Text: KBFF 230853Z AUTO 32012KT 10SM OVC090 03/M03 A2965 RMK AO2 SLP030 T00281028 51042
Loading
Personal Weather Stations






























Interactive Weather Map New forecast layout! Learn more

10-Day Weather Forecast

Advertisements
Track Severe Weather on mobile